createdAt,value
2023-01-21T00:01:11.590Z,67.37
2023-01-21T00:03:59.960Z,69.93
2023-01-21T00:06:49.142Z,61.53
2023-01-21T00:09:37.075Z,64.90
2023-01-21T00:12:25.055Z,67.17
2023-01-21T00:15:12.986Z,72.47
2023-01-21T00:18:02.240Z,68.60
2023-01-21T00:20:50.172Z,67.63
2023-01-21T00:23:38.128Z,68.23
2023-01-21T00:26:26.105Z,67.83
2023-01-21T00:29:14.358Z,67.53
2023-01-21T00:32:02.284Z,67.37
2023-01-21T00:34:51.582Z,68.17
2023-01-21T00:37:39.640Z,68.50
2023-01-21T00:40:27.710Z,71.23
2023-01-21T00:43:15.647Z,64.97
2023-01-21T00:46:03.967Z,65.03
2023-01-21T00:48:51.966Z,75.87
2023-01-21T00:51:41.260Z,65.73
2023-01-21T00:54:31.182Z,71.97
2023-01-21T00:57:19.133Z,66.37
2023-01-21T01:00:11.042Z,71.03
2023-01-21T01:02:59.026Z,63.23
2023-01-21T01:05:46.930Z,63.60
2023-01-21T01:08:36.287Z,69.10
2023-01-21T01:11:25.703Z,67.27
2023-01-21T01:14:13.629Z,64.87
2023-01-21T01:17:01.553Z,67.23
2023-01-21T01:19:49.457Z,69.10
2023-01-21T01:22:37.380Z,60.53
2023-01-21T01:25:26.650Z,67.50
2023-01-21T01:28:14.593Z,75.83
2023-01-21T01:31:04.869Z,67.93
2023-01-21T01:33:52.825Z,66.43
2023-01-21T01:36:40.724Z,67.97
2023-01-21T01:39:28.662Z,69.10
2023-01-21T01:42:17.998Z,65.47
2023-01-21T01:45:08.379Z,65.77
2023-01-21T01:48:02.400Z,66.73
2023-01-21T01:50:50.655Z,67.43
2023-01-21T01:53:41.853Z,60.57
2023-01-21T01:56:31.353Z,64.17
2023-01-21T01:59:21.057Z,66.60
2023-01-21T02:02:12.345Z,67.60
2023-01-21T02:05:05.624Z,64.53
2023-01-21T02:07:53.772Z,57.03
2023-01-21T02:10:41.684Z,60.33
2023-01-21T02:13:33.188Z,64.93
2023-01-21T02:16:37.413Z,63.97
2023-01-21T02:19:50.786Z,57.83
2023-01-21T02:22:49.276Z,56.07
2023-01-21T02:26:10.578Z,56.07
2023-01-21T02:29:21.559Z,50.67
2023-01-21T02:32:38.873Z,49.73
2023-01-21T02:35:37.741Z,50.53
2023-01-21T02:38:31.082Z,51.23
2023-01-21T02:41:30.628Z,54.07
2023-01-21T02:44:26.280Z,49.47
2023-01-21T02:47:23.718Z,46.87
2023-01-21T02:50:18.787Z,43.33
2023-01-21T02:53:08.264Z,43.90
2023-01-21T02:55:58.498Z,45.63
2023-01-21T02:58:48.916Z,43.20
2023-01-21T03:01:51.719Z,43.40
2023-01-21T03:04:52.990Z,39.73
2023-01-21T03:07:47.663Z,42.23
2023-01-21T03:10:42.799Z,46.00
2023-01-21T03:13:53.062Z,47.33
2023-01-21T03:16:57.940Z,42.30
2023-01-21T03:19:53.396Z,42.90
2023-01-21T03:22:42.805Z,44.00
2023-01-21T03:25:34.192Z,46.53
2023-01-21T03:28:27.295Z,43.70
2023-01-21T03:32:05.131Z,39.80
2023-01-21T03:34:55.717Z,39.33
2023-01-21T03:37:49.690Z,37.40
2023-01-21T03:40:41.648Z,47.10
2023-01-21T03:43:31.094Z,40.23
2023-01-21T03:46:25.556Z,41.40
2023-01-21T03:49:19.105Z,41.80
2023-01-21T03:52:09.065Z,44.27
2023-01-21T03:54:57.559Z,45.00
2023-01-21T03:57:45.802Z,45.90
2023-01-21T04:00:35.072Z,41.47
2023-01-21T04:03:23.745Z,42.47
2023-01-21T04:06:14.680Z,45.07
2023-01-21T04:09:02.608Z,42.00
2023-01-21T04:11:50.534Z,42.00
2023-01-21T04:14:38.719Z,41.53
2023-01-21T04:17:28.719Z,42.33
2023-01-21T04:20:17.071Z,46.03
2023-01-21T04:23:05.174Z,38.77
2023-01-21T04:25:53.372Z,43.23
2023-01-21T04:28:42.048Z,41.10
2023-01-21T04:31:29.986Z,39.20
2023-01-21T04:34:19.284Z,41.30
2023-01-21T04:37:07.570Z,39.13
2023-01-21T04:39:55.472Z,32.80
2023-01-21T04:42:43.874Z,37.87
2023-01-21T04:45:31.819Z,33.50
2023-01-21T04:48:19.839Z,34.60
2023-01-21T04:51:09.202Z,30.70
2023-01-21T04:53:57.197Z,30.80
2023-01-21T04:56:45.232Z,32.90
2023-01-21T04:59:33.131Z,30.77
2023-01-21T05:02:21.118Z,33.57
2023-01-21T05:05:09.399Z,30.40
2023-01-21T05:07:58.705Z,31.13
2023-01-21T05:10:46.683Z,29.20
2023-01-21T05:13:34.591Z,32.57
2023-01-21T05:16:23.129Z,30.83
2023-01-21T05:19:11.880Z,29.50
2023-01-21T05:21:59.785Z,27.83
2023-01-21T05:24:49.057Z,32.23
2023-01-21T05:27:36.956Z,31.13
2023-01-21T05:30:24.886Z,28.57
2023-01-21T05:33:12.945Z,26.70
2023-01-21T05:36:02.651Z,33.97
2023-01-21T05:38:50.869Z,30.53
2023-01-21T05:41:40.117Z,31.20
2023-01-21T05:44:28.083Z,29.73
2023-01-21T05:47:16.005Z,30.57
2023-01-21T05:50:04.308Z,31.03
2023-01-21T05:52:52.518Z,30.53
2023-01-21T05:55:40.769Z,28.80
2023-01-21T05:58:30.460Z,28.17
2023-01-21T06:01:18.351Z,28.27
2023-01-21T06:04:06.382Z,31.80
2023-01-21T06:06:54.276Z,29.50
2023-01-21T06:09:42.225Z,27.53
2023-01-21T06:12:30.186Z,27.60
2023-01-21T06:15:19.821Z,25.43
2023-01-21T06:18:07.906Z,28.23
2023-01-21T06:20:55.824Z,27.30
2023-01-21T06:23:43.741Z,27.47
2023-01-21T06:26:31.681Z,28.20
2023-01-21T06:29:19.716Z,26.77
2023-01-21T06:32:09.185Z,27.23
2023-01-21T06:34:57.212Z,25.67
2023-01-21T06:37:45.941Z,26.90
2023-01-21T06:40:34.235Z,25.83
2023-01-21T06:43:22.170Z,24.87
2023-01-21T06:46:10.559Z,23.43
2023-01-21T06:49:00.483Z,24.87
2023-01-21T06:51:48.959Z,24.20
2023-01-21T06:54:36.895Z,23.47
2023-01-21T06:57:25.230Z,24.20
2023-01-21T07:00:14.341Z,23.43
2023-01-21T07:03:02.400Z,23.90
2023-01-21T07:05:51.724Z,22.47
2023-01-21T07:08:39.671Z,21.40
2023-01-21T07:11:27.693Z,21.43
2023-01-21T07:14:15.622Z,21.50
2023-01-21T07:17:03.575Z,22.63
2023-01-21T07:19:51.509Z,22.73
2023-01-21T07:22:40.802Z,21.00
2023-01-21T07:25:28.734Z,21.20
2023-01-21T07:28:17.056Z,21.90
2023-01-21T07:31:05.309Z,19.77
2023-01-21T07:33:53.439Z,20.77
2023-01-21T07:36:41.730Z,22.87
2023-01-21T07:39:31.020Z,20.53
2023-01-21T07:42:18.914Z,22.20
2023-01-21T07:45:07.839Z,22.17
2023-01-21T07:47:55.948Z,20.87
2023-01-21T07:50:43.954Z,22.33
2023-01-21T07:53:31.941Z,21.40
2023-01-21T07:56:21.213Z,20.20
2023-01-21T07:59:10.721Z,20.93
2023-01-21T08:01:58.912Z,21.50
2023-01-21T08:04:46.910Z,21.73
2023-01-21T08:07:34.870Z,21.30
2023-01-21T08:10:23.102Z,23.87
2023-01-21T08:13:12.340Z,23.87
2023-01-21T08:16:00.294Z,23.23
2023-01-21T08:18:48.206Z,22.17
2023-01-21T08:21:36.180Z,21.97
2023-01-21T08:24:24.128Z,22.83
2023-01-21T08:27:12.064Z,22.47
2023-01-21T08:30:01.355Z,23.70
2023-01-21T08:32:49.782Z,23.97
2023-01-21T08:35:37.735Z,25.60
2023-01-21T08:38:25.724Z,25.90
2023-01-21T08:41:13.622Z,23.57
2023-01-21T08:44:01.819Z,28.67
2023-01-21T08:46:51.279Z,24.30
2023-01-21T08:49:39.182Z,29.43
2023-01-21T08:52:27.220Z,28.67
2023-01-21T08:55:15.550Z,28.83
2023-01-21T08:58:03.596Z,27.53
2023-01-21T09:00:51.903Z,27.50
2023-01-21T09:03:41.242Z,34.13
2023-01-21T09:06:30.929Z,28.93
2023-01-21T09:09:18.853Z,31.07
2023-01-21T09:12:08.045Z,33.30
2023-01-21T09:14:55.983Z,32.40
2023-01-21T09:17:43.879Z,31.93
2023-01-21T09:20:33.253Z,30.93
2023-01-21T09:23:28.000Z,35.07
2023-01-21T09:26:18.583Z,36.33
2023-01-21T09:29:06.557Z,37.53
2023-01-21T09:31:54.694Z,33.70
2023-01-21T09:34:42.623Z,37.20
2023-01-21T09:37:34.635Z,36.53
2023-01-21T09:40:22.527Z,35.70
2023-01-21T09:43:14.560Z,39.90
2023-01-21T09:46:06.168Z,46.57
2023-01-21T09:48:56.806Z,43.00
2023-01-21T09:51:52.741Z,45.00
2023-01-21T09:54:42.301Z,40.57
2023-01-21T09:58:07.687Z,43.93
2023-01-21T10:01:03.986Z,37.83
2023-01-21T10:03:56.793Z,40.67
2023-01-21T10:06:52.289Z,39.70
2023-01-21T10:09:56.744Z,44.00
2023-01-21T10:13:04.000Z,42.00
2023-01-21T10:16:01.521Z,45.80
2023-01-21T10:18:53.519Z,45.40
2023-01-21T10:21:47.752Z,47.83
2023-01-21T10:24:39.073Z,48.30
2023-01-21T10:27:32.229Z,48.43
2023-01-21T10:30:24.009Z,44.93
2023-01-21T10:33:18.125Z,48.50
2023-01-21T10:36:25.420Z,46.23
2023-01-21T10:39:23.949Z,45.33
2023-01-21T10:42:29.539Z,48.20
2023-01-21T10:45:29.060Z,52.27
2023-01-21T10:48:24.051Z,46.90
2023-01-21T10:51:21.690Z,49.07
2023-01-21T10:54:22.262Z,49.77
2023-01-21T10:57:25.762Z,51.40
2023-01-21T11:00:22.814Z,48.37
2023-01-21T11:03:14.645Z,50.30
2023-01-21T11:06:06.828Z,53.47
2023-01-21T11:08:59.246Z,53.93
2023-01-21T11:11:47.155Z,54.03
2023-01-21T11:14:35.383Z,58.53
2023-01-21T11:17:34.133Z,54.30
2023-01-21T11:20:28.704Z,50.77
2023-01-21T11:23:28.087Z,53.13
2023-01-21T11:26:21.305Z,49.00
2023-01-21T11:29:13.806Z,56.17
2023-01-21T11:32:06.689Z,51.90
2023-01-21T11:35:05.558Z,54.47
2023-01-21T11:37:53.507Z,51.93
2023-01-21T11:40:41.825Z,57.60
2023-01-21T11:43:35.199Z,57.80
2023-01-21T11:46:28.313Z,54.47
2023-01-21T11:49:32.420Z,54.93
2023-01-21T11:52:22.102Z,56.60
2023-01-21T11:55:21.935Z,56.60
2023-01-21T11:58:19.713Z,64.20
2023-01-21T12:01:12.002Z,67.53
2023-01-21T12:04:01.955Z,70.63
2023-01-21T12:06:53.537Z,71.83
2023-01-21T12:09:50.248Z,65.07
2023-01-21T12:12:53.407Z,63.87
2023-01-21T12:15:56.540Z,62.77
2023-01-21T12:19:02.919Z,54.67
2023-01-21T12:22:04.920Z,54.10
2023-01-21T12:25:17.241Z,51.63
2023-01-21T12:28:30.697Z,58.27
2023-01-21T12:31:29.448Z,53.33
2023-01-21T12:34:28.323Z,57.30
2023-01-21T12:37:22.118Z,56.50
2023-01-21T12:40:19.438Z,57.20
2023-01-21T12:43:16.880Z,56.97
2023-01-21T12:46:10.666Z,60.30
2023-01-21T12:49:03.347Z,57.50
2023-01-21T12:51:56.518Z,55.87
2023-01-21T12:54:51.344Z,52.80
2023-01-21T12:57:47.666Z,58.90
2023-01-21T13:00:40.280Z,53.30
2023-01-21T13:03:34.254Z,60.67
2023-01-21T13:06:47.174Z,56.47
2023-01-21T13:09:45.133Z,55.77
2023-01-21T13:12:35.374Z,54.23
2023-01-21T13:15:30.094Z,58.50
2023-01-21T13:18:24.102Z,64.57
2023-01-21T13:21:22.233Z,61.53
2023-01-21T13:24:17.523Z,54.53
2023-01-21T13:27:14.116Z,55.53
2023-01-21T13:30:10.899Z,55.87
2023-01-21T13:33:12.674Z,57.27
2023-01-21T13:36:17.043Z,57.10
2023-01-21T13:39:10.059Z,57.33
2023-01-21T13:42:14.544Z,56.90
2023-01-21T13:45:24.785Z,57.00
2023-01-21T13:48:50.376Z,52.47
2023-01-21T13:51:50.930Z,53.47
2023-01-21T13:54:52.841Z,57.33
2023-01-21T13:57:53.465Z,57.83
2023-01-21T14:00:45.694Z,57.83
2023-01-21T14:03:42.207Z,50.03
2023-01-21T14:06:35.884Z,56.73
2023-01-21T14:09:30.279Z,52.80
2023-01-21T14:12:23.256Z,54.87
2023-01-21T14:15:25.007Z,57.07
2023-01-21T14:18:30.128Z,57.27
2023-01-21T14:21:40.697Z,49.87
2023-01-21T14:24:45.585Z,50.23
2023-01-21T14:27:46.129Z,49.73
2023-01-21T14:30:43.012Z,53.83
2023-01-21T14:33:39.876Z,51.60
2023-01-21T14:36:39.492Z,55.50
2023-01-21T14:39:38.873Z,54.10
2023-01-21T14:42:41.554Z,56.37
2023-01-21T14:45:54.410Z,54.97
2023-01-21T14:48:42.801Z,54.07
2023-01-21T14:51:33.035Z,54.73
2023-01-21T14:54:26.205Z,55.33
2023-01-21T14:57:25.504Z,65.00
2023-01-21T15:00:23.178Z,54.20
2023-01-21T15:03:16.850Z,50.37
2023-01-21T15:06:09.720Z,54.33
2023-01-21T15:09:01.276Z,51.70
2023-01-21T15:11:53.069Z,49.53
2023-01-21T15:14:42.699Z,55.93
2023-01-21T15:18:03.194Z,48.13
2023-01-21T15:20:52.455Z,39.97
2023-01-21T15:23:40.730Z,46.47
2023-01-21T15:26:33.683Z,49.67
2023-01-21T15:29:34.700Z,52.43
2023-01-21T15:32:29.264Z,49.23
2023-01-21T15:35:24.698Z,47.03
2023-01-21T15:38:15.653Z,42.33
2023-01-21T15:41:10.498Z,44.73
2023-01-21T15:44:08.292Z,48.50
2023-01-21T15:47:03.292Z,45.37
2023-01-21T15:50:03.170Z,48.90
2023-01-21T15:53:06.983Z,47.87
2023-01-21T15:56:13.471Z,41.90
2023-01-21T15:59:15.524Z,44.13
2023-01-21T16:02:18.044Z,44.27
2023-01-21T16:05:20.294Z,39.90
2023-01-21T16:08:19.760Z,43.33
2023-01-21T16:11:21.020Z,43.03
2023-01-21T16:14:21.367Z,40.60
2023-01-21T16:17:18.733Z,41.20
2023-01-21T16:20:11.157Z,43.20
2023-01-21T16:23:01.511Z,40.83
2023-01-21T16:25:51.475Z,39.60
2023-01-21T16:28:44.247Z,43.70
2023-01-21T16:31:46.360Z,41.43
2023-01-21T16:34:41.674Z,38.97
2023-01-21T16:37:31.310Z,40.43
2023-01-21T16:40:30.284Z,40.13
2023-01-21T16:43:25.776Z,34.77
2023-01-21T16:46:17.294Z,40.77
2023-01-21T16:49:13.671Z,39.60
2023-01-21T16:52:03.910Z,38.87
2023-01-21T16:54:53.198Z,37.50
2023-01-21T16:57:48.987Z,35.03
2023-01-21T17:00:37.069Z,41.67
2023-01-21T17:03:25.193Z,38.20
2023-01-21T17:06:21.010Z,37.30
2023-01-21T17:09:20.716Z,39.73
2023-01-21T17:12:12.119Z,37.33
2023-01-21T17:15:03.611Z,38.73
2023-01-21T17:17:56.262Z,37.63
2023-01-21T17:20:45.954Z,35.47
2023-01-21T17:23:37.577Z,35.87
2023-01-21T17:26:29.405Z,33.93
2023-01-21T17:29:20.695Z,37.63
2023-01-21T17:32:25.643Z,38.40
2023-01-21T17:35:15.827Z,30.73
2023-01-21T17:38:06.234Z,32.33
2023-01-21T17:41:03.443Z,34.33
2023-01-21T17:43:53.254Z,34.50
2023-01-21T17:46:45.687Z,35.43
2023-01-21T17:49:33.628Z,35.10
2023-01-21T17:52:22.340Z,37.57
2023-01-21T17:55:25.535Z,37.70
2023-01-21T17:58:45.952Z,35.37
2023-01-21T18:01:35.415Z,31.17
2023-01-21T18:04:23.504Z,31.93
2023-01-21T18:07:22.240Z,33.17
2023-01-21T18:10:15.911Z,36.27
2023-01-21T18:13:04.087Z,36.50
2023-01-21T18:15:54.032Z,34.70
2023-01-21T18:18:43.457Z,36.57
2023-01-21T18:21:31.472Z,34.83
2023-01-21T18:24:19.532Z,34.50
2023-01-21T18:27:10.363Z,34.60
2023-01-21T18:29:59.218Z,34.37
2023-01-21T18:32:49.631Z,35.13
2023-01-21T18:35:40.979Z,29.33
2023-01-21T18:38:30.551Z,33.20
2023-01-21T18:41:19.563Z,32.33
2023-01-21T18:44:07.549Z,31.13
2023-01-21T18:46:56.564Z,33.03
2023-01-21T18:49:44.893Z,31.23
2023-01-21T18:52:34.237Z,30.83
2023-01-21T18:55:26.929Z,33.13
2023-01-21T18:58:15.080Z,34.13
2023-01-21T19:01:13.815Z,31.77
2023-01-21T19:04:09.845Z,30.77
2023-01-21T19:06:58.231Z,32.70
2023-01-21T19:09:50.505Z,30.93
2023-01-21T19:12:38.491Z,29.97
2023-01-21T19:15:28.870Z,31.90
2023-01-21T19:18:17.817Z,32.70
2023-01-21T19:21:08.108Z,31.37
2023-01-21T19:23:56.325Z,32.43
2023-01-21T19:26:45.573Z,33.53
2023-01-21T19:29:33.494Z,37.57
2023-01-21T19:32:21.548Z,37.83
2023-01-21T19:35:09.951Z,36.33
2023-01-21T19:37:58.812Z,35.07
2023-01-21T19:40:47.525Z,34.80
2023-01-21T19:43:36.817Z,37.00
2023-01-21T19:46:28.720Z,35.03
2023-01-21T19:49:17.967Z,28.90
2023-01-21T19:52:06.520Z,32.80
2023-01-21T19:54:55.256Z,33.27
2023-01-21T19:57:44.237Z,39.37
2023-01-21T20:00:36.106Z,35.37
2023-01-21T20:03:25.606Z,32.70
2023-01-21T20:06:13.635Z,36.03
2023-01-21T20:09:01.646Z,33.17
2023-01-21T20:11:49.564Z,36.20
2023-01-21T20:14:37.547Z,38.93
2023-01-21T20:17:26.933Z,32.47
2023-01-21T20:20:17.030Z,40.10
2023-01-21T20:23:05.039Z,39.43
2023-01-21T20:25:56.317Z,33.57
2023-01-21T20:28:50.159Z,37.80
2023-01-21T20:31:38.106Z,34.07
2023-01-21T20:34:30.864Z,34.70
2023-01-21T20:37:18.813Z,35.77
2023-01-21T20:40:07.423Z,36.23
2023-01-21T20:42:57.007Z,39.07
2023-01-21T20:45:47.470Z,36.87
2023-01-21T20:48:37.666Z,40.40
2023-01-21T20:51:27.043Z,37.37
2023-01-21T20:54:15.015Z,37.47
2023-01-21T20:57:03.728Z,38.77
2023-01-21T20:59:51.649Z,39.03
2023-01-21T21:02:39.605Z,38.53
2023-01-21T21:05:28.857Z,36.70
2023-01-21T21:08:20.144Z,38.80
2023-01-21T21:11:08.347Z,39.90
2023-01-21T21:13:56.460Z,35.70
2023-01-21T21:16:44.548Z,42.23
2023-01-21T21:19:32.465Z,39.83
2023-01-21T21:22:20.395Z,39.07
2023-01-21T21:25:14.415Z,41.53
2023-01-21T21:28:02.347Z,36.83
2023-01-21T21:30:50.272Z,39.37
2023-01-21T21:33:38.252Z,39.60
2023-01-21T21:36:26.249Z,38.67
2023-01-21T21:39:19.086Z,37.40
2023-01-21T21:42:28.088Z,38.50
2023-01-21T21:45:16.440Z,34.57
2023-01-21T21:48:25.337Z,40.20
2023-01-21T21:51:17.376Z,35.60
2023-01-21T21:54:07.666Z,34.87
2023-01-21T21:56:56.083Z,40.97
2023-01-21T21:59:46.573Z,41.17
2023-01-21T22:02:34.607Z,41.30
2023-01-21T22:05:22.647Z,44.83
2023-01-21T22:08:15.675Z,40.50
2023-01-21T22:11:05.009Z,38.17
2023-01-21T22:13:54.253Z,43.03
2023-01-21T22:16:44.169Z,39.53
2023-01-21T22:19:32.084Z,37.33
2023-01-21T22:22:19.984Z,37.47
2023-01-21T22:25:09.331Z,37.70
2023-01-21T22:27:57.276Z,43.90
2023-01-21T22:30:45.291Z,43.80
2023-01-21T22:33:35.495Z,39.00
2023-01-21T22:36:25.003Z,41.37
2023-01-21T22:39:12.971Z,38.33
2023-01-21T22:42:03.030Z,41.93
2023-01-21T22:44:50.989Z,42.17
2023-01-21T22:47:38.944Z,40.73
2023-01-21T22:50:28.394Z,41.77
2023-01-21T22:53:16.329Z,41.20
2023-01-21T22:56:06.034Z,42.60
2023-01-21T22:58:54.026Z,40.40
2023-01-21T23:01:42.733Z,42.43
2023-01-21T23:04:30.695Z,42.93
2023-01-21T23:07:19.963Z,41.70
2023-01-21T23:10:08.443Z,41.40
2023-01-21T23:12:56.463Z,41.00
2023-01-21T23:15:45.058Z,45.47
2023-01-21T23:18:33.861Z,41.83
2023-01-21T23:21:23.179Z,41.07
2023-01-21T23:24:12.453Z,40.93
2023-01-21T23:27:00.385Z,43.07
2023-01-21T23:29:48.379Z,41.50
2023-01-21T23:32:36.357Z,44.27
2023-01-21T23:35:24.301Z,45.13
2023-01-21T23:38:12.243Z,44.90
2023-01-21T23:41:06.814Z,43.80
2023-01-21T23:43:54.703Z,42.83
2023-01-21T23:46:43.509Z,42.07
2023-01-21T23:49:31.463Z,39.30
2023-01-21T23:52:19.432Z,43.47
2023-01-21T23:55:09.686Z,44.47
2023-01-21T23:57:58.962Z,43.33
